createdAt,value
2023-03-16T00:02:26.632Z,101712.50
2023-03-16T00:05:29.610Z,101713.72
2023-03-16T00:08:35.874Z,101722.47
2023-03-16T00:11:38.652Z,101718.63
2023-03-16T00:14:41.811Z,101711.19
2023-03-16T00:17:48.742Z,101724.31
2023-03-16T00:20:52.857Z,101722.75
2023-03-16T00:23:57.356Z,101729.84
2023-03-16T00:27:00.058Z,101729.63
2023-03-16T00:30:03.541Z,101735.91
2023-03-16T00:33:06.311Z,101727.13
2023-03-16T00:36:11.484Z,101732.53
2023-03-16T00:39:15.757Z,101730.75
2023-03-16T00:42:19.620Z,101727.03
2023-03-16T00:45:23.632Z,101720.06
2023-03-16T00:48:26.540Z,101731.19
2023-03-16T00:51:30.674Z,101740.50
2023-03-16T00:54:34.918Z,101730.19
2023-03-16T00:57:37.662Z,101735.75
2023-03-16T01:00:41.121Z,101731.88
2023-03-16T01:03:43.919Z,101733.03
2023-03-16T01:06:46.813Z,101737.78
2023-03-16T01:09:51.173Z,101739.66
2023-03-16T01:12:56.074Z,101740.34
2023-03-16T01:15:59.188Z,101740.16
2023-03-16T01:19:02.105Z,101743.38
2023-03-16T01:22:06.003Z,101747.09
2023-03-16T01:25:13.274Z,101752.19
2023-03-16T01:28:16.111Z,101737.47
2023-03-16T01:31:18.992Z,101745.94
2023-03-16T01:34:21.795Z,101733.09
2023-03-16T01:37:24.682Z,101738.31
2023-03-16T01:40:29.161Z,101737.00
2023-03-16T01:43:33.396Z,101732.25
2023-03-16T01:46:36.448Z,101734.59
2023-03-16T01:49:39.835Z,101734.41
2023-03-16T01:52:42.754Z,101727.16
2023-03-16T01:55:47.641Z,101730.88
2023-03-16T01:58:52.078Z,101736.75
2023-03-16T02:01:55.415Z,101736.63
2023-03-16T02:05:04.861Z,101735.63
2023-03-16T02:08:09.869Z,101732.91
2023-03-16T02:11:18.279Z,101723.66
2023-03-16T02:14:22.364Z,101729.41
2023-03-16T02:17:28.080Z,101729.41
2023-03-16T02:20:38.924Z,101724.03
2023-03-16T02:23:43.682Z,101723.00
2023-03-16T02:26:53.849Z,101722.69
2023-03-16T02:30:03.597Z,101727.41
2023-03-16T02:33:06.425Z,101730.78
2023-03-16T02:36:10.496Z,101728.59
2023-03-16T02:39:13.307Z,101723.06
2023-03-16T02:42:19.320Z,101736.38
2023-03-16T02:45:27.309Z,101731.47
2023-03-16T02:48:35.540Z,101734.19
2023-03-16T02:51:38.445Z,101736.03
2023-03-16T02:54:41.425Z,101732.66
2023-03-16T02:57:44.401Z,101736.69
2023-03-16T03:00:49.617Z,101737.41
2023-03-16T03:03:52.586Z,101740.63
2023-03-16T03:07:04.071Z,101743.50
2023-03-16T03:10:07.811Z,101754.28
2023-03-16T03:13:10.638Z,101755.97
2023-03-16T03:16:15.411Z,101747.16
2023-03-16T03:19:18.190Z,101755.63
2023-03-16T03:22:21.074Z,101755.44
2023-03-16T03:25:24.352Z,101764.06
2023-03-16T03:28:27.313Z,101767.44
2023-03-16T03:31:32.124Z,101774.84
2023-03-16T03:34:35.112Z,101775.69
2023-03-16T03:37:38.296Z,101786.13
2023-03-16T03:40:41.105Z,101780.75
2023-03-16T03:43:45.475Z,101782.44
2023-03-16T03:46:50.244Z,101768.63
2023-03-16T03:49:53.293Z,101776.53
2023-03-16T03:52:56.141Z,101770.78
2023-03-16T03:55:58.844Z,101766.41
2023-03-16T03:59:01.710Z,101772.34
2023-03-16T04:02:06.335Z,101772.66
2023-03-16T04:05:09.947Z,101775.38
2023-03-16T04:08:12.791Z,101769.28
2023-03-16T04:11:15.564Z,101766.09
2023-03-16T04:14:18.630Z,101763.41
2023-03-16T04:17:23.740Z,101767.63
2023-03-16T04:20:27.019Z,101764.25
2023-03-16T04:23:30.410Z,101768.28
2023-03-16T04:26:34.211Z,101772.50
2023-03-16T04:29:37.604Z,101769.81
2023-03-16T04:32:42.745Z,101766.56
2023-03-16T04:35:46.674Z,101777.06
2023-03-16T04:38:49.565Z,101772.66
2023-03-16T04:41:52.410Z,101778.50
2023-03-16T04:44:56.130Z,101783.53
2023-03-16T04:48:00.588Z,101777.84
2023-03-16T04:51:04.921Z,101782.22
2023-03-16T04:54:08.008Z,101781.03
2023-03-16T04:57:11.006Z,101784.22
2023-03-16T05:00:19.405Z,101786.75
2023-03-16T05:03:23.888Z,101791.34
2023-03-16T05:06:27.208Z,101799.91
2023-03-16T05:09:30.037Z,101795.03
2023-03-16T05:12:32.748Z,101795.19
2023-03-16T05:15:35.850Z,101789.78
2023-03-16T05:18:40.095Z,101793.97
2023-03-16T05:21:43.077Z,101796.53
2023-03-16T05:24:46.622Z,101801.88
2023-03-16T05:27:51.470Z,101807.22
2023-03-16T05:30:54.299Z,101806.66
2023-03-16T05:33:58.545Z,101805.66
2023-03-16T05:37:01.623Z,101808.81
2023-03-16T05:40:12.225Z,101817.03
2023-03-16T05:43:15.047Z,101810.53
2023-03-16T05:46:20.600Z,101811.72
2023-03-16T05:49:26.270Z,101818.88
2023-03-16T05:52:29.046Z,101821.75
2023-03-16T05:55:32.212Z,101820.22
2023-03-16T05:58:35.240Z,101830.16
2023-03-16T06:01:37.994Z,101826.72
2023-03-16T06:04:42.494Z,101822.25
2023-03-16T06:07:45.462Z,101825.97
2023-03-16T06:10:48.998Z,101827.88
2023-03-16T06:13:51.936Z,101828.06
2023-03-16T06:16:54.688Z,101831.09
2023-03-16T06:19:58.880Z,101827.72
2023-03-16T06:23:01.654Z,101831.47
2023-03-16T06:26:05.345Z,101828.09
2023-03-16T06:29:08.699Z,101829.22
2023-03-16T06:32:11.648Z,101832.03
2023-03-16T06:35:16.048Z,101838.31
2023-03-16T06:38:19.523Z,101837.63
2023-03-16T06:41:22.408Z,101837.91
2023-03-16T06:44:25.226Z,101842.81
2023-03-16T06:47:28.118Z,101853.25
2023-03-16T06:50:32.212Z,101846.63
2023-03-16T06:53:34.957Z,101857.34
2023-03-16T06:56:37.694Z,101851.44
2023-03-16T06:59:40.492Z,101866.50
2023-03-16T07:02:43.919Z,101868.56
2023-03-16T07:05:48.007Z,101863.41
2023-03-16T07:08:51.733Z,101865.28
2023-03-16T07:11:54.570Z,101878.91
2023-03-16T07:14:59.050Z,101871.47
2023-03-16T07:18:02.271Z,101875.09
2023-03-16T07:21:06.774Z,101875.59
2023-03-16T07:24:11.599Z,101878.38
2023-03-16T07:27:14.732Z,101877.09
2023-03-16T07:30:17.891Z,101882.78
2023-03-16T07:33:22.915Z,101892.16
2023-03-16T07:36:28.499Z,101898.38
2023-03-16T07:39:31.648Z,101893.66
2023-03-16T07:42:35.583Z,101899.53
2023-03-16T07:45:38.457Z,101884.69
2023-03-16T07:48:42.516Z,101896.31
2023-03-16T07:51:46.894Z,101900.09
2023-03-16T07:54:49.877Z,101897.72
2023-03-16T07:57:52.623Z,101897.47
2023-03-16T08:00:58.760Z,101898.50
2023-03-16T08:04:02.625Z,101902.56
2023-03-16T08:07:06.874Z,101904.03
2023-03-16T08:10:11.538Z,101897.50
2023-03-16T08:13:15.108Z,101895.50
2023-03-16T08:16:19.540Z,101901.13
2023-03-16T08:19:25.016Z,101894.94
2023-03-16T08:22:29.104Z,101893.25
2023-03-16T08:25:32.038Z,101900.63
2023-03-16T08:28:35.740Z,101903.31
2023-03-16T08:31:39.073Z,101907.69
2023-03-16T08:34:42.560Z,101913.75
2023-03-16T08:37:47.719Z,101913.13
2023-03-16T08:40:52.187Z,101908.59
2023-03-16T08:43:54.886Z,101914.91
2023-03-16T08:46:57.821Z,101921.16
2023-03-16T08:50:01.118Z,101922.28
2023-03-16T08:53:05.263Z,101918.69
2023-03-16T08:56:10.554Z,101917.50
2023-03-16T08:59:27.047Z,101925.56
2023-03-16T09:02:32.760Z,101927.53
2023-03-16T09:05:36.588Z,101927.22
2023-03-16T09:08:41.753Z,101924.28
2023-03-16T09:11:45.129Z,101932.56
2023-03-16T09:14:49.053Z,101921.84
2023-03-16T09:17:53.383Z,101935.53
2023-03-16T09:21:00.137Z,101931.88
2023-03-16T09:24:04.865Z,101939.41
2023-03-16T09:27:08.757Z,101937.16
2023-03-16T09:30:13.174Z,101942.09
2023-03-16T09:33:15.915Z,101940.91
2023-03-16T09:36:19.034Z,101938.78
2023-03-16T09:39:24.186Z,101943.06
2023-03-16T09:42:36.474Z,101941.16
2023-03-16T09:45:48.050Z,101947.34
2023-03-16T09:48:53.072Z,101943.41
2023-03-16T09:52:08.611Z,101950.78
2023-03-16T09:55:34.261Z,101951.69
2023-03-16T09:58:56.070Z,101952.56
2023-03-16T10:02:33.313Z,101954.66
2023-03-16T10:05:38.597Z,101943.34
2023-03-16T10:08:44.389Z,101938.34
2023-03-16T10:11:55.210Z,101941.41
2023-03-16T10:15:01.842Z,101935.53
2023-03-16T10:18:13.754Z,101937.44
2023-03-16T10:21:18.225Z,101940.75
2023-03-16T10:24:34.306Z,101938.94
2023-03-16T10:27:42.200Z,101935.28
2023-03-16T10:30:45.417Z,101948.28
2023-03-16T10:33:51.891Z,101932.78
2023-03-16T10:36:56.205Z,101923.44
2023-03-16T10:40:00.761Z,101914.88
2023-03-16T10:43:10.112Z,101907.19
2023-03-16T10:46:15.025Z,101926.16
2023-03-16T10:49:25.795Z,101917.16
2023-03-16T10:52:35.463Z,101918.09
2023-03-16T10:55:45.805Z,101916.28
2023-03-16T10:58:50.128Z,101909.00
2023-03-16T11:01:53.419Z,101918.91
2023-03-16T11:04:57.391Z,101914.19
2023-03-16T11:08:03.142Z,101918.63
2023-03-16T11:11:13.402Z,101908.72
2023-03-16T11:14:22.307Z,101904.97
2023-03-16T11:17:34.092Z,101901.16
2023-03-16T11:20:38.011Z,101900.25
2023-03-16T11:23:48.537Z,101893.38
2023-03-16T11:26:56.681Z,101891.88
2023-03-16T11:30:07.337Z,101897.75
2023-03-16T11:33:11.531Z,101897.41
2023-03-16T11:36:38.857Z,101888.28
2023-03-16T11:39:50.215Z,101870.47
2023-03-16T11:43:01.310Z,101883.34
2023-03-16T11:46:13.870Z,101874.31
2023-03-16T11:49:38.525Z,101873.81
2023-03-16T11:52:51.398Z,101866.09
2023-03-16T11:56:06.677Z,101862.00
2023-03-16T11:59:40.834Z,101855.84
2023-03-16T12:03:01.232Z,101856.31
2023-03-16T12:06:22.490Z,101856.16
2023-03-16T12:09:57.267Z,101847.16
2023-03-16T12:13:30.806Z,101842.91
2023-03-16T12:16:49.148Z,101841.00
2023-03-16T12:20:06.080Z,101840.44
2023-03-16T12:23:14.775Z,101838.13
2023-03-16T12:26:24.411Z,101833.59
2023-03-16T12:29:35.307Z,101823.97
2023-03-16T12:32:46.643Z,101832.06
2023-03-16T12:35:58.096Z,101821.34
2023-03-16T12:39:05.398Z,101818.75
2023-03-16T12:42:20.693Z,101821.00
2023-03-16T12:45:37.045Z,101810.94
2023-03-16T12:48:44.569Z,101809.97
2023-03-16T12:52:03.732Z,101799.38
2023-03-16T12:55:16.774Z,101800.03
2023-03-16T12:58:20.774Z,101798.75
2023-03-16T13:01:29.223Z,101793.03
2023-03-16T13:04:34.969Z,101790.63
2023-03-16T13:07:48.672Z,101787.66
2023-03-16T13:11:02.362Z,101783.16
2023-03-16T13:14:11.212Z,101783.47
2023-03-16T13:17:26.065Z,101775.00
2023-03-16T13:20:31.976Z,101787.19
2023-03-16T13:23:55.603Z,101787.41
2023-03-16T13:27:03.273Z,101786.94
2023-03-16T13:30:18.774Z,101795.78
2023-03-16T13:33:25.688Z,101786.34
2023-03-16T13:36:29.919Z,101782.53
2023-03-16T13:39:34.536Z,101792.69
2023-03-16T13:42:37.538Z,101787.06
2023-03-16T13:45:40.830Z,101780.03
2023-03-16T13:48:43.914Z,101771.75
2023-03-16T13:51:48.610Z,101768.66
2023-03-16T13:54:54.599Z,101768.63
2023-03-16T13:57:58.001Z,101769.44
2023-03-16T14:01:04.892Z,101757.97
2023-03-16T14:04:14.318Z,101745.78
2023-03-16T14:07:19.741Z,101754.03
2023-03-16T14:10:25.269Z,101755.38
2023-03-16T14:13:36.338Z,101750.56
2023-03-16T14:16:39.901Z,101752.22
2023-03-16T14:19:46.521Z,101753.91
2023-03-16T14:22:54.006Z,101744.13
2023-03-16T14:25:59.087Z,101752.13
2023-03-16T14:29:06.466Z,101751.16
2023-03-16T14:32:23.421Z,101738.88
2023-03-16T14:35:29.133Z,101736.56
2023-03-16T14:38:33.938Z,101715.25
2023-03-16T14:41:38.971Z,101727.72
2023-03-16T14:44:42.537Z,101717.63
2023-03-16T14:47:47.655Z,101705.59
2023-03-16T14:50:55.268Z,101708.47
2023-03-16T14:53:58.147Z,101700.78
2023-03-16T14:57:05.560Z,101708.28
2023-03-16T15:00:11.993Z,101699.22
2023-03-16T15:03:18.549Z,101695.88
2023-03-16T15:06:21.990Z,101686.72
2023-03-16T15:09:37.150Z,101685.63
2023-03-16T15:12:41.355Z,101677.09
2023-03-16T15:15:44.335Z,101677.06
2023-03-16T15:18:47.637Z,101674.47
2023-03-16T15:21:50.829Z,101675.28
2023-03-16T15:24:54.495Z,101673.53
2023-03-16T15:27:58.642Z,101674.91
2023-03-16T15:31:03.005Z,101662.59
2023-03-16T15:34:05.851Z,101667.97
2023-03-16T15:37:12.968Z,101678.97
2023-03-16T15:40:22.121Z,101666.34
2023-03-16T15:43:28.853Z,101663.66
2023-03-16T15:46:31.644Z,101651.28
2023-03-16T15:49:46.510Z,101648.72
2023-03-16T15:52:54.921Z,101660.47
2023-03-16T15:56:03.000Z,101652.34
2023-03-16T15:59:12.222Z,101658.34
2023-03-16T16:02:27.602Z,101653.00
2023-03-16T16:05:30.938Z,101655.06
2023-03-16T16:08:33.794Z,101650.72
2023-03-16T16:11:36.740Z,101644.78
2023-03-16T16:14:41.870Z,101646.69
2023-03-16T16:18:01.905Z,101650.09
2023-03-16T16:21:09.641Z,101648.59
2023-03-16T16:24:12.695Z,101651.38
2023-03-16T16:27:15.747Z,101644.91
2023-03-16T16:30:25.939Z,101644.97
2023-03-16T16:33:30.737Z,101651.91
2023-03-16T16:36:33.439Z,101651.53
2023-03-16T16:39:36.291Z,101643.28
2023-03-16T16:42:40.209Z,101646.06
2023-03-16T16:45:44.420Z,101632.09
2023-03-16T16:48:48.728Z,101641.28
2023-03-16T16:51:52.347Z,101629.41
2023-03-16T16:54:55.226Z,101629.19
2023-03-16T16:57:58.045Z,101628.81
2023-03-16T17:01:02.835Z,101623.22
2023-03-16T17:04:13.088Z,101622.03
2023-03-16T17:07:15.879Z,101628.91
2023-03-16T17:10:21.440Z,101631.34
2023-03-16T17:13:33.462Z,101628.19
2023-03-16T17:16:38.059Z,101632.22
2023-03-16T17:19:41.034Z,101641.78
2023-03-16T17:22:43.777Z,101643.47
2023-03-16T17:25:46.637Z,101645.72
2023-03-16T17:28:53.214Z,101639.06
2023-03-16T17:31:57.415Z,101642.91
2023-03-16T17:35:00.113Z,101636.47
2023-03-16T17:38:02.877Z,101641.16
2023-03-16T17:41:06.199Z,101638.69
2023-03-16T17:44:15.465Z,101646.09
2023-03-16T17:47:22.308Z,101650.72
2023-03-16T17:50:29.310Z,101644.00
2023-03-16T17:53:33.488Z,101630.63
2023-03-16T17:56:37.305Z,101635.72
2023-03-16T17:59:40.959Z,101622.25
2023-03-16T18:02:52.405Z,101618.88
2023-03-16T18:05:55.454Z,101629.38
2023-03-16T18:08:58.647Z,101638.00
2023-03-16T18:12:01.527Z,101637.38
2023-03-16T18:15:04.478Z,101632.53
2023-03-16T18:18:09.128Z,101626.22
2023-03-16T18:21:19.056Z,101630.59
2023-03-16T18:24:25.506Z,101622.91
2023-03-16T18:27:28.353Z,101622.44
2023-03-16T18:30:32.742Z,101634.19
2023-03-16T18:33:39.473Z,101623.88
2023-03-16T18:36:45.819Z,101612.94
2023-03-16T18:39:49.068Z,101610.81
2023-03-16T18:42:54.354Z,101615.44
2023-03-16T18:45:57.243Z,101607.91
2023-03-16T18:49:04.625Z,101599.50
2023-03-16T18:52:17.863Z,101600.56
2023-03-16T18:55:23.730Z,101606.63
2023-03-16T18:58:26.600Z,101608.75
2023-03-16T19:01:31.632Z,101615.53
2023-03-16T19:04:36.153Z,101607.25
2023-03-16T19:07:42.105Z,101605.41
2023-03-16T19:10:49.105Z,101592.81
2023-03-16T19:13:54.720Z,101594.75
2023-03-16T19:16:57.816Z,101590.50
2023-03-16T19:20:02.057Z,101596.44
2023-03-16T19:23:08.333Z,101603.31
2023-03-16T19:26:11.754Z,101603.19
2023-03-16T19:29:16.019Z,101602.16
2023-03-16T19:32:19.894Z,101604.06
2023-03-16T19:35:33.830Z,101611.63
2023-03-16T19:38:46.126Z,101609.50
2023-03-16T19:41:55.192Z,101596.88
2023-03-16T19:44:58.012Z,101582.81
2023-03-16T19:48:01.440Z,101598.75
2023-03-16T19:51:06.651Z,101597.72
2023-03-16T19:54:20.861Z,101597.91
2023-03-16T19:57:24.394Z,101590.13
2023-03-16T20:00:28.022Z,101581.16
2023-03-16T20:03:34.326Z,101594.81
2023-03-16T20:06:38.620Z,101593.22
2023-03-16T20:09:41.670Z,101583.38
2023-03-16T20:12:44.381Z,101582.31
2023-03-16T20:15:47.708Z,101580.69
2023-03-16T20:18:54.834Z,101593.22
2023-03-16T20:21:59.108Z,101582.94
2023-03-16T20:25:05.125Z,101576.13
2023-03-16T20:28:17.501Z,101584.28
2023-03-16T20:31:22.618Z,101583.00
2023-03-16T20:34:27.720Z,101577.91
2023-03-16T20:37:32.350Z,101576.13
2023-03-16T20:40:35.086Z,101579.81
2023-03-16T20:43:38.735Z,101572.34
2023-03-16T20:46:41.815Z,101569.00
2023-03-16T20:49:45.089Z,101586.19
2023-03-16T20:52:49.546Z,101577.59
2023-03-16T20:55:54.478Z,101564.78
2023-03-16T20:58:58.003Z,101565.22
2023-03-16T21:02:01.673Z,101562.75
2023-03-16T21:05:07.803Z,101548.22
2023-03-16T21:08:12.904Z,101555.81
2023-03-16T21:11:23.035Z,101549.28
2023-03-16T21:14:26.360Z,101535.63
2023-03-16T21:17:31.944Z,101545.31
2023-03-16T21:20:36.805Z,101536.56
2023-03-16T21:23:41.047Z,101540.56
2023-03-16T21:26:47.401Z,101527.31
2023-03-16T21:29:50.392Z,101528.81
2023-03-16T21:32:54.316Z,101519.13
2023-03-16T21:35:57.276Z,101527.59
2023-03-16T21:39:01.538Z,101517.28
2023-03-16T21:42:04.262Z,101509.53
2023-03-16T21:45:08.447Z,101509.16
2023-03-16T21:48:16.734Z,101513.97
2023-03-16T21:51:22.145Z,101508.72
2023-03-16T21:54:26.626Z,101504.97
2023-03-16T21:57:29.345Z,101497.22
2023-03-16T22:00:33.434Z,101497.59
2023-03-16T22:03:50.632Z,101477.69
2023-03-16T22:06:54.013Z,101478.88
2023-03-16T22:09:58.321Z,101472.41
2023-03-16T22:13:02.125Z,101455.78
2023-03-16T22:16:15.124Z,101466.56
2023-03-16T22:19:18.137Z,101468.06
2023-03-16T22:22:21.354Z,101480.78
2023-03-16T22:25:27.748Z,101472.56
2023-03-16T22:28:31.494Z,101452.75
2023-03-16T22:31:36.987Z,101449.91
2023-03-16T22:34:44.011Z,101445.84
2023-03-16T22:37:46.950Z,101446.31
2023-03-16T22:40:51.384Z,101449.25
2023-03-16T22:43:55.223Z,101447.34
2023-03-16T22:46:58.211Z,101444.41
2023-03-16T22:50:01.252Z,101447.75
2023-03-16T22:53:08.621Z,101447.75
2023-03-16T22:56:13.002Z,101437.31
2023-03-16T22:59:18.888Z,101423.22
2023-03-16T23:02:25.466Z,101445.47
2023-03-16T23:05:30.502Z,101437.06
2023-03-16T23:08:33.613Z,101434.34
2023-03-16T23:11:39.686Z,101432.91
2023-03-16T23:14:43.260Z,101433.56
2023-03-16T23:17:46.587Z,101421.19
2023-03-16T23:20:50.142Z,101432.53
2023-03-16T23:24:03.478Z,101427.91
2023-03-16T23:27:17.332Z,101420.78
2023-03-16T23:30:23.603Z,101415.13
2023-03-16T23:33:27.121Z,101424.97
2023-03-16T23:36:30.053Z,101412.22
2023-03-16T23:39:32.948Z,101406.34
2023-03-16T23:42:37.236Z,101413.25
2023-03-16T23:45:42.397Z,101411.38
2023-03-16T23:48:47.533Z,101410.13
2023-03-16T23:51:51.243Z,101416.63
2023-03-16T23:54:54.080Z,101408.88
2023-03-16T23:57:58.423Z,101416.41
